Wilmington, OH

2:29 AM EST on February 01, 2015 (GMT -0500)
Little House On The Prairie | Change Station
CLOSE
Current Station
Personal Weather Station
Location: Wilmington, OH
Elevation: 1043 ft
Nearby Weather Stations
Active Advisory: Winter Weather Advisory

Elev 1043 ft 39.45 °N, 83.82 °W | Updated 16 seconds ago

Overcast
Overcast
31.5 °F
Feels Like 32 °F
N
1.7
Wind Variable Wind from SSW
Gusts 1.7 mph

Today
High -- | Low -- °F
--% Chance of Precip.
Yesterday
High -- | Low -- °F
Precip. -- in
7:42 AM 5:55 PM
Waxing Gibbous, 93% visible
Pressure 30.17 in
Visibility 7.0 miles
Clouds Mostly Cloudy 4600 ft
Overcast 8500 ft
Windchill 32 °F
Dew Point 30 °F
Humidity 95%
Rainfall 0.00 in
Snow Depth Not available.
UV 0 out of 12
Pollen .10 out of 12
Air Quality Not available.
Flu Activity Not available.
SPECI KILN 010706Z AUTO 06003KT 7SM BKN046 OVC085 00/M02 A3017 RMK AO2 FZRAE00 P0000 I1000 T00001022

More Conditions Fewer Conditions

Pressure 30.17 in
Visibility 7.0 miles
Clouds Mostly Cloudy 4600 ft
Overcast 8500 ft
Windchill 32 °F
Dew Point 30 °F
Humidity 95%
Rainfall 0.00 in
Snow Depth Not available.
UV 0 out of 12
Pollen .10 out of 12
Air Quality Not available.
Flu Activity Not available.
SPECI KILN 010706Z AUTO 06003KT 7SM BKN046 OVC085 00/M02 A3017 RMK AO2 FZRAE00 P0000 I1000 T00001022

More Conditions Fewer Conditions

10-Day Weather Forecast

Almanac

Astronomy

Feb. 01, 2015 Rise Set
Actual Time
Civil Twilight
Nautical Twilight
Astronomical Twilight
Moon
Length of Visible Light
Length of Day
Tomorrow will be .
, % of the Moon is Illuminated

Today's Extremes

State Highs State Lows

Community

WunderPhotos

Upload Photos

1,792,325 photos uploaded!

WunderBlogs® & News

Nearby

Air Quality

  Air Quality AQ Index Pollutant
Not available.

Snow Depth

Station Depth Elevation

Earthquake Activity

City Distance Mag. Time & Date
Minimum magnitude displayed is 2.5.

Coastal Water Temperatures

Place Temperature

Nearby Weather Stations